sensor_id;sensor_type;location;lat;lon;timestamp;pressure;altitude;pressure_sealevel;temperature;humidity
64844;BME280;51310;52.198;5.422;2023-02-02T00:01:47;101828.06;;;6.34;100.00
64844;BME280;51310;52.198;5.422;2023-02-02T00:04:18;101823.22;;;6.23;100.00
64844;BME280;51310;52.198;5.422;2023-02-02T00:06:44;101838.34;;;6.22;100.00
64844;BME280;51310;52.198;5.422;2023-02-02T00:09:16;101822.81;;;6.20;100.00
64844;BME280;51310;52.198;5.422;2023-02-02T00:11:43;101822.41;;;6.17;100.00
64844;BME280;51310;52.198;5.422;2023-02-02T00:14:10;101825.59;;;6.09;100.00
64844;BME280;51310;52.198;5.422;2023-02-02T00:16:44;101816.81;;;6.07;100.00
64844;BME280;51310;52.198;5.422;2023-02-02T00:19:18;101818.06;;;6.03;100.00
64844;BME280;51310;52.198;5.422;2023-02-02T00:21:45;101829.41;;;6.05;100.00
64844;BME280;51310;52.198;5.422;2023-02-02T00:24:12;101829.75;;;6.01;100.00
64844;BME280;51310;52.198;5.422;2023-02-02T00:26:40;101829.31;;;5.98;100.00
64844;BME280;51310;52.198;5.422;2023-02-02T00:29:14;101819.41;;;5.94;100.00
64844;BME280;51310;52.198;5.422;2023-02-02T00:31:40;101816.53;;;5.98;100.00
64844;BME280;51310;52.198;5.422;2023-02-02T00:34:05;101821.34;;;6.02;100.00
64844;BME280;51310;52.198;5.422;2023-02-02T00:36:31;101822.44;;;6.04;100.00
64844;BME280;51310;52.198;5.422;2023-02-02T00:38:57;101821.03;;;6.06;100.00
64844;BME280;51310;52.198;5.422;2023-02-02T00:41:23;101819.59;;;6.08;100.00
64844;BME280;51310;52.198;5.422;2023-02-02T00:43:48;101821.03;;;6.06;100.00
64844;BME280;51310;52.198;5.422;2023-02-02T00:46:39;101814.47;;;6.08;100.00
64844;BME280;51310;52.198;5.422;2023-02-02T00:49:06;101814.56;;;6.15;100.00
64844;BME280;51310;52.198;5.422;2023-02-02T00:51:31;101818.94;;;6.16;100.00
64844;BME280;51310;52.198;5.422;2023-02-02T00:53:57;101816.19;;;6.15;100.00
64844;BME280;51310;52.198;5.422;2023-02-02T00:56:23;101824.38;;;6.12;100.00
64844;BME280;51310;52.198;5.422;2023-02-02T00:58:50;101824.59;;;6.14;100.00
64844;BME280;51310;52.198;5.422;2023-02-02T01:01:18;101818.88;;;6.09;100.00
64844;BME280;51310;52.198;5.422;2023-02-02T01:03:49;101828.31;;;6.03;100.00
64844;BME280;51310;52.198;5.422;2023-02-02T01:06:16;101822.97;;;6.02;100.00
64844;BME280;51310;52.198;5.422;2023-02-02T01:08:43;101828.41;;;5.98;100.00
64844;BME280;51310;52.198;5.422;2023-02-02T01:11:08;101829.53;;;6.00;100.00
64844;BME280;51310;52.198;5.422;2023-02-02T01:13:35;101824.63;;;6.01;100.00
64844;BME280;51310;52.198;5.422;2023-02-02T01:16:02;101828.19;;;5.96;100.00
64844;BME280;51310;52.198;5.422;2023-02-02T01:18:29;101832.59;;;5.97;100.00
64844;BME280;51310;52.198;5.422;2023-02-02T01:21:06;101832.41;;;5.95;100.00
64844;BME280;51310;52.198;5.422;2023-02-02T01:23:33;101844.03;;;5.93;100.00
64844;BME280;51310;52.198;5.422;2023-02-02T01:26:03;101843.34;;;5.94;100.00
64844;BME280;51310;52.198;5.422;2023-02-02T01:28:30;101842.63;;;5.95;100.00
64844;BME280;51310;52.198;5.422;2023-02-02T01:30:56;101845.59;;;5.86;100.00
64844;BME280;51310;52.198;5.422;2023-02-02T01:33:23;101847.31;;;5.92;100.00
64844;BME280;51310;52.198;5.422;2023-02-02T01:35:54;101849.44;;;5.89;100.00
64844;BME280;51310;52.198;5.422;2023-02-02T01:38:21;101851.09;;;5.89;100.00
64844;BME280;51310;52.198;5.422;2023-02-02T01:40:54;101847.94;;;5.84;100.00
64844;BME280;51310;52.198;5.422;2023-02-02T01:43:24;101841.50;;;5.81;100.00
64844;BME280;51310;52.198;5.422;2023-02-02T01:45:55;101852.75;;;5.75;100.00
64844;BME280;51310;52.198;5.422;2023-02-02T01:48:32;101853.28;;;5.73;100.00
64844;BME280;51310;52.198;5.422;2023-02-02T01:51:06;101852.53;;;5.74;100.00
64844;BME280;51310;52.198;5.422;2023-02-02T01:53:33;101854.28;;;5.68;100.00
64844;BME280;51310;52.198;5.422;2023-02-02T01:56:02;101847.94;;;5.71;100.00
64844;BME280;51310;52.198;5.422;2023-02-02T01:58:34;101853.50;;;5.62;100.00
64844;BME280;51310;52.198;5.422;2023-02-02T02:01:03;101846.44;;;5.53;100.00
64844;BME280;51310;52.198;5.422;2023-02-02T02:03:32;101849.31;;;5.49;100.00
64844;BME280;51310;52.198;5.422;2023-02-02T02:06:14;101850.75;;;5.47;100.00
64844;BME280;51310;52.198;5.422;2023-02-02T02:09:03;101862.16;;;5.44;100.00
64844;BME280;51310;52.198;5.422;2023-02-02T02:11:30;101846.75;;;5.37;100.00
64844;BME280;51310;52.198;5.422;2023-02-02T02:14:01;101838.38;;;5.38;100.00
64844;BME280;51310;52.198;5.422;2023-02-02T02:17:28;101845.94;;;5.30;100.00
64844;BME280;51310;52.198;5.422;2023-02-02T02:35:12;101833.56;;;5.46;100.00
64844;BME280;51310;52.198;5.422;2023-02-02T02:40:50;101826.84;;;5.47;100.00
64844;BME280;51310;52.198;5.422;2023-02-02T02:43:30;101829.50;;;5.54;100.00
64844;BME280;51310;52.198;5.422;2023-02-02T02:45:57;101818.16;;;5.52;100.00
64844;BME280;51310;52.198;5.422;2023-02-02T02:48:23;101810.09;;;5.49;100.00
64844;BME280;51310;52.198;5.422;2023-02-02T02:50:49;101813.03;;;5.52;100.00
64844;BME280;51310;52.198;5.422;2023-02-02T02:53:21;101806.28;;;5.52;100.00
64844;BME280;51310;52.198;5.422;2023-02-02T02:56:13;101818.97;;;5.58;100.00
64844;BME280;51310;52.198;5.422;2023-02-02T02:58:51;101811.63;;;5.54;100.00
64844;BME280;51310;52.198;5.422;2023-02-02T03:01:26;101817.63;;;5.54;100.00
64844;BME280;51310;52.198;5.422;2023-02-02T03:04:25;101819.78;;;5.64;100.00
64844;BME280;51310;52.198;5.422;2023-02-02T03:07:35;101824.06;;;5.71;100.00
64844;BME280;51310;52.198;5.422;2023-02-02T03:10:06;101831.78;;;5.78;100.00
64844;BME280;51310;52.198;5.422;2023-02-02T03:12:33;101830.25;;;5.86;100.00
64844;BME280;51310;52.198;5.422;2023-02-02T03:15:04;101830.13;;;5.91;100.00
64844;BME280;51310;52.198;5.422;2023-02-02T03:17:29;101837.72;;;5.97;100.00
64844;BME280;51310;52.198;5.422;2023-02-02T03:19:55;101839.75;;;6.00;100.00
64844;BME280;51310;52.198;5.422;2023-02-02T03:22:21;101841.47;;;6.06;100.00
64844;BME280;51310;52.198;5.422;2023-02-02T03:24:47;101843.69;;;6.10;100.00
64844;BME280;51310;52.198;5.422;2023-02-02T03:27:12;101837.56;;;6.15;100.00
64844;BME280;51310;52.198;5.422;2023-02-02T03:29:38;101839.41;;;6.16;100.00
64844;BME280;51310;52.198;5.422;2023-02-02T03:32:04;101837.56;;;6.15;100.00
64844;BME280;51310;52.198;5.422;2023-02-02T03:34:29;101837.63;;;6.23;100.00
64844;BME280;51310;52.198;5.422;2023-02-02T03:36:55;101838.75;;;6.25;100.00
64844;BME280;51310;52.198;5.422;2023-02-02T03:39:21;101836.00;;;6.23;100.00
64844;BME280;51310;52.198;5.422;2023-02-02T03:41:46;101834.56;;;6.25;100.00
64844;BME280;51310;52.198;5.422;2023-02-02T03:44:12;101846.09;;;6.29;100.00
64844;BME280;51310;52.198;5.422;2023-02-02T03:46:38;101831.34;;;6.33;100.00
64844;BME280;51310;52.198;5.422;2023-02-02T03:49:03;101836.25;;;6.32;100.00
64844;BME280;51310;52.198;5.422;2023-02-02T03:51:29;101833.19;;;6.34;100.00
64844;BME280;51310;52.198;5.422;2023-02-02T03:53:55;101840.31;;;6.37;100.00
64844;BME280;51310;52.198;5.422;2023-02-02T03:56:20;101834.72;;;6.40;100.00
64844;BME280;51310;52.198;5.422;2023-02-02T03:58:46;101833.06;;;6.40;100.00
64844;BME280;51310;52.198;5.422;2023-02-02T04:01:13;101831.41;;;6.41;100.00
64844;BME280;51310;52.198;5.422;2023-02-02T04:03:39;101831.75;;;6.36;100.00
64844;BME280;51310;52.198;5.422;2023-02-02T04:06:05;101830.88;;;6.43;100.00
64844;BME280;51310;52.198;5.422;2023-02-02T04:08:30;101829.97;;;6.43;100.00
64844;BME280;51310;52.198;5.422;2023-02-02T04:10:56;101829.06;;;6.42;100.00
64844;BME280;51310;52.198;5.422;2023-02-02T04:13:22;101836.94;;;6.44;100.00
64844;BME280;51310;52.198;5.422;2023-02-02T04:15:57;101825.97;;;6.45;100.00
64844;BME280;51310;52.198;5.422;2023-02-02T04:18:23;101824.34;;;6.45;100.00
64844;BME280;51310;52.198;5.422;2023-02-02T04:20:48;101814.09;;;6.45;100.00
64844;BME280;51310;52.198;5.422;2023-02-02T04:23:14;101818.63;;;6.41;100.00
64844;BME280;51310;52.198;5.422;2023-02-02T04:25:48;101813.72;;;6.42;100.00
64844;BME280;51310;52.198;5.422;2023-02-02T04:28:14;101819.38;;;6.40;100.00
64844;BME280;51310;52.198;5.422;2023-02-02T04:30:40;101822.91;;;6.47;100.00
64844;BME280;51310;52.198;5.422;2023-02-02T04:33:06;101833.13;;;6.47;100.00
64844;BME280;51310;52.198;5.422;2023-02-02T04:35:31;101841.59;;;6.53;100.00
64844;BME280;51310;52.198;5.422;2023-02-02T04:37:57;101833.22;;;6.54;100.00
64844;BME280;51310;52.198;5.422;2023-02-02T04:40:23;101843.44;;;6.54;100.00
64844;BME280;51310;52.198;5.422;2023-02-02T04:42:49;101837.25;;;6.60;100.00
64844;BME280;51310;52.198;5.422;2023-02-02T04:45:15;101850.25;;;6.61;100.00
64844;BME280;51310;52.198;5.422;2023-02-02T04:47:40;101847.88;;;6.63;100.00
64844;BME280;51310;52.198;5.422;2023-02-02T04:50:07;101859.53;;;6.61;100.00
64844;BME280;51310;52.198;5.422;2023-02-02T04:52:33;101845.84;;;6.60;100.00
64844;BME280;51310;52.198;5.422;2023-02-02T04:54:59;101853.19;;;6.64;100.00
64844;BME280;51310;52.198;5.422;2023-02-02T04:57:25;101844.81;;;6.65;100.00
64844;BME280;51310;52.198;5.422;2023-02-02T04:59:51;101846.16;;;6.56;100.00
64844;BME280;51310;52.198;5.422;2023-02-02T05:02:17;101843.56;;;6.49;100.00
64844;BME280;51310;52.198;5.422;2023-02-02T05:04:45;101853.09;;;6.37;100.00
64844;BME280;51310;52.198;5.422;2023-02-02T05:07:10;101850.63;;;6.44;100.00
64844;BME280;51310;52.198;5.422;2023-02-02T05:09:36;101851.75;;;6.46;100.00
64844;BME280;51310;52.198;5.422;2023-02-02T05:12:02;101855.22;;;6.47;100.00
64844;BME280;51310;52.198;5.422;2023-02-02T05:14:28;101854.91;;;6.51;100.00
64844;BME280;51310;52.198;5.422;2023-02-02T05:16:53;101851.13;;;6.54;100.00
64844;BME280;51310;52.198;5.422;2023-02-02T05:19:19;101854.00;;;6.50;100.00
64844;BME280;51310;52.198;5.422;2023-02-02T05:21:45;101844.25;;;6.48;100.00
64844;BME280;51310;52.198;5.422;2023-02-02T05:24:12;101846.31;;;6.50;100.00
64844;BME280;51310;52.198;5.422;2023-02-02T05:26:38;101850.69;;;6.51;100.00
64844;BME280;51310;52.198;5.422;2023-02-02T05:29:04;101854.38;;;6.53;100.00
64844;BME280;51310;52.198;5.422;2023-02-02T05:31:31;101861.84;;;6.52;100.00
64844;BME280;51310;52.198;5.422;2023-02-02T05:33:58;101858.16;;;6.50;100.00
64844;BME280;51310;52.198;5.422;2023-02-02T05:36:24;101862.78;;;6.52;100.00
64844;BME280;51310;52.198;5.422;2023-02-02T05:38:49;101854.59;;;6.55;100.00
64844;BME280;51310;52.198;5.422;2023-02-02T05:41:15;101859.50;;;6.53;100.00
64844;BME280;51310;52.198;5.422;2023-02-02T05:43:41;101859.69;;;6.55;100.00
64844;BME280;51310;52.198;5.422;2023-02-02T05:46:06;101865.50;;;6.54;100.00
64844;BME280;51310;52.198;5.422;2023-02-02T05:48:32;101861.66;;;6.50;100.00
64844;BME280;51310;52.198;5.422;2023-02-02T05:51:10;101863.28;;;6.50;100.00
64844;BME280;51310;52.198;5.422;2023-02-02T05:53:36;101865.97;;;6.44;100.00
64844;BME280;51310;52.198;5.422;2023-02-02T05:56:02;101853.19;;;6.44;100.00
64844;BME280;51310;52.198;5.422;2023-02-02T05:58:28;101864.13;;;6.43;100.00
64844;BME280;51310;52.198;5.422;2023-02-02T06:00:54;101869.06;;;6.42;100.00
64844;BME280;51310;52.198;5.422;2023-02-02T06:03:19;101869.97;;;6.42;100.00
64844;BME280;51310;52.198;5.422;2023-02-02T06:05:45;101873.44;;;6.43;100.00
64844;BME280;51310;52.198;5.422;2023-02-02T06:08:11;101873.19;;;6.34;100.00
64844;BME280;51310;52.198;5.422;2023-02-02T06:10:40;101876.84;;;6.36;100.00
64844;BME280;51310;52.198;5.422;2023-02-02T06:13:07;101866.03;;;6.31;100.00
64844;BME280;51310;52.198;5.422;2023-02-02T06:15:33;101862.75;;;6.32;100.00
64844;BME280;51310;52.198;5.422;2023-02-02T06:17:59;101871.69;;;6.29;100.00
64844;BME280;51310;52.198;5.422;2023-02-02T06:20:26;101865.81;;;6.30;100.00
64844;BME280;51310;52.198;5.422;2023-02-02T06:22:51;101872.16;;;6.26;100.00
64844;BME280;51310;52.198;5.422;2023-02-02T06:25:17;101873.81;;;6.26;100.00
64844;BME280;51310;52.198;5.422;2023-02-02T06:27:43;101878.91;;;6.26;100.00
64844;BME280;51310;52.198;5.422;2023-02-02T06:30:11;101885.69;;;6.25;100.00
64844;BME280;51310;52.198;5.422;2023-02-02T06:32:38;101893.56;;;6.27;100.00
64844;BME280;51310;52.198;5.422;2023-02-02T06:35:04;101890.59;;;6.24;100.00
64844;BME280;51310;52.198;5.422;2023-02-02T06:37:30;101894.09;;;6.24;100.00
64844;BME280;51310;52.198;5.422;2023-02-02T06:39:56;101894.78;;;6.23;100.00
64844;BME280;51310;52.198;5.422;2023-02-02T06:42:22;101908.31;;;6.22;100.00
64844;BME280;51310;52.198;5.422;2023-02-02T06:44:47;101909.75;;;6.20;100.00
64844;BME280;51310;52.198;5.422;2023-02-02T06:47:13;101906.06;;;6.18;100.00
64844;BME280;51310;52.198;5.422;2023-02-02T06:49:39;101904.81;;;6.22;100.00
64844;BME280;51310;52.198;5.422;2023-02-02T06:52:06;101913.41;;;6.22;100.00
64844;BME280;51310;52.198;5.422;2023-02-02T06:54:32;101922.00;;;6.23;100.00
64844;BME280;51310;52.198;5.422;2023-02-02T06:56:57;101915.75;;;6.21;100.00
64844;BME280;51310;52.198;5.422;2023-02-02T06:59:23;101917.91;;;6.18;100.00
64844;BME280;51310;52.198;5.422;2023-02-02T07:01:49;101918.84;;;6.18;100.00
64844;BME280;51310;52.198;5.422;2023-02-02T07:04:18;101916.28;;;6.18;100.00
64844;BME280;51310;52.198;5.422;2023-02-02T07:06:44;101913.31;;;6.15;100.00
64844;BME280;51310;52.198;5.422;2023-02-02T07:09:10;101905.13;;;6.18;100.00
64844;BME280;51310;52.198;5.422;2023-02-02T07:11:36;101907.66;;;6.18;100.00
64844;BME280;51310;52.198;5.422;2023-02-02T07:14:03;101904.19;;;6.17;100.00
64844;BME280;51310;52.198;5.422;2023-02-02T07:16:29;101910.06;;;6.16;100.00
64844;BME280;51310;52.198;5.422;2023-02-02T07:18:55;101911.47;;;6.14;100.00
64844;BME280;51310;52.198;5.422;2023-02-02T07:21:25;101920.44;;;6.18;100.00
64844;BME280;51310;52.198;5.422;2023-02-02T07:23:52;101916.59;;;6.14;100.00
64844;BME280;51310;52.198;5.422;2023-02-02T07:26:19;101914.75;;;6.13;100.00
64844;BME280;51310;52.198;5.422;2023-02-02T07:28:45;101921.72;;;6.14;100.00
64844;BME280;51310;52.198;5.422;2023-02-02T07:31:23;101932.47;;;6.11;100.00
64844;BME280;51310;52.198;5.422;2023-02-02T07:33:50;101926.28;;;6.16;100.00
64844;BME280;51310;52.198;5.422;2023-02-02T07:36:19;101934.88;;;6.17;100.00
64844;BME280;51310;52.198;5.422;2023-02-02T07:38:47;101932.75;;;6.20;100.00
64844;BME280;51310;52.198;5.422;2023-02-02T07:41:15;101938.75;;;6.21;100.00
64844;BME280;51310;52.198;5.422;2023-02-02T07:43:40;101936.00;;;6.19;100.00
64844;BME280;51310;52.198;5.422;2023-02-02T07:46:09;101938.47;;;6.25;100.00
64844;BME280;51310;52.198;5.422;2023-02-02T07:48:35;101942.31;;;6.28;100.00
64844;BME280;51310;52.198;5.422;2023-02-02T07:51:04;101937.84;;;6.33;100.00
64844;BME280;51310;52.198;5.422;2023-02-02T07:53:31;101945.16;;;6.37;100.00
64844;BME280;51310;52.198;5.422;2023-02-02T07:56:21;101954.88;;;6.40;100.00
64844;BME280;51310;52.198;5.422;2023-02-02T07:58:50;101953.13;;;6.46;100.00
64844;BME280;51310;52.198;5.422;2023-02-02T08:01:16;101954.97;;;6.47;100.00
64844;BME280;51310;52.198;5.422;2023-02-02T08:03:43;101960.47;;;6.50;100.00
64844;BME280;51310;52.198;5.422;2023-02-02T08:06:37;101952.09;;;6.51;100.00
64844;BME280;51310;52.198;5.422;2023-02-02T08:09:06;101959.81;;;6.58;100.00
64844;BME280;51310;52.198;5.422;2023-02-02T08:11:34;101967.19;;;6.62;100.00
64844;BME280;51310;52.198;5.422;2023-02-02T08:14:01;101975.59;;;6.61;100.00
64844;BME280;51310;52.198;5.422;2023-02-02T08:16:30;101964.84;;;6.64;100.00
64844;BME280;51310;52.198;5.422;2023-02-02T08:18:57;101973.22;;;6.63;100.00
64844;BME280;51310;52.198;5.422;2023-02-02T08:21:23;101973.22;;;6.63;100.00
64844;BME280;51310;52.198;5.422;2023-02-02T08:23:51;101986.53;;;6.60;100.00
64844;BME280;51310;52.198;5.422;2023-02-02T08:26:29;101986.75;;;6.62;100.00
64844;BME280;51310;52.198;5.422;2023-02-02T08:29:02;101982.16;;;6.59;100.00
64844;BME280;51310;52.198;5.422;2023-02-02T08:31:35;101996.06;;;6.61;100.00
64844;BME280;51310;52.198;5.422;2023-02-02T08:34:03;102001.78;;;6.66;100.00
64844;BME280;51310;52.198;5.422;2023-02-02T08:36:30;102003.28;;;6.71;100.00
64844;BME280;51310;52.198;5.422;2023-02-02T08:39:04;102000.63;;;6.76;100.00
64844;BME280;51310;52.198;5.422;2023-02-02T08:41:31;102007.38;;;6.76;100.00
64844;BME280;51310;52.198;5.422;2023-02-02T08:43:57;102001.00;;;6.80;100.00
64844;BME280;51310;52.198;5.422;2023-02-02T08:46:23;102013.09;;;6.81;100.00
64844;BME280;51310;52.198;5.422;2023-02-02T08:48:49;102013.16;;;6.88;100.00
64844;BME280;51310;52.198;5.422;2023-02-02T08:51:17;102015.50;;;6.86;100.00
64844;BME280;51310;52.198;5.422;2023-02-02T08:53:44;102023.00;;;6.85;100.00
64844;BME280;51310;52.198;5.422;2023-02-02T08:56:20;102023.06;;;6.92;100.00
64844;BME280;51310;52.198;5.422;2023-02-02T08:58:53;102024.19;;;6.94;100.00
64844;BME280;51310;52.198;5.422;2023-02-02T09:01:26;102022.22;;;6.98;100.00
64844;BME280;51310;52.198;5.422;2023-02-02T09:03:58;102028.66;;;7.02;100.00
64844;BME280;51310;52.198;5.422;2023-02-02T09:06:34;102023.34;;;7.01;100.00
64844;BME280;51310;52.198;5.422;2023-02-02T09:09:00;102036.16;;;7.01;100.00
64844;BME280;51310;52.198;5.422;2023-02-02T09:11:27;102041.66;;;7.04;100.00
64844;BME280;51310;52.198;5.422;2023-02-02T09:13:56;102036.94;;;7.07;100.00
64844;BME280;51310;52.198;5.422;2023-02-02T09:16:24;102046.97;;;7.05;100.00
64844;BME280;51310;52.198;5.422;2023-02-02T09:18:50;102056.31;;;7.05;100.00
64844;BME280;51310;52.198;5.422;2023-02-02T09:21:18;102056.63;;;7.01;100.00
64844;BME280;51310;52.198;5.422;2023-02-02T09:23:46;102056.81;;;7.02;100.00
64844;BME280;51310;52.198;5.422;2023-02-02T09:26:20;102066.34;;;7.03;100.00
64844;BME280;51310;52.198;5.422;2023-02-02T09:28:56;102065.63;;;7.04;100.00
64844;BME280;51310;52.198;5.422;2023-02-02T09:31:24;102066.53;;;7.05;100.00
64844;BME280;51310;52.198;5.422;2023-02-02T09:33:51;102063.38;;;7.00;100.00
64844;BME280;51310;52.198;5.422;2023-02-02T09:36:20;102073.63;;;7.00;100.00
64844;BME280;51310;52.198;5.422;2023-02-02T09:38:48;102068.19;;;7.04;100.00
64844;BME280;51310;52.198;5.422;2023-02-02T09:53:17;102076.22;;;7.20;100.00
64844;BME280;51310;52.198;5.422;2023-02-02T09:55:51;102075.16;;;7.25;100.00
64844;BME280;51310;52.198;5.422;2023-02-02T09:58:43;102075.78;;;7.17;100.00
64844;BME280;51310;52.198;5.422;2023-02-02T10:01:29;102075.94;;;7.11;100.00
64844;BME280;51310;52.198;5.422;2023-02-02T10:04:26;102085.44;;;7.12;100.00
64844;BME280;51310;52.198;5.422;2023-02-02T10:07:00;102088.81;;;7.18;100.00
64844;BME280;51310;52.198;5.422;2023-02-02T10:10:02;102087.94;;;7.25;100.00
64844;BME280;51310;52.198;5.422;2023-02-02T10:12:38;102097.06;;;7.23;100.00
64844;BME280;51310;52.198;5.422;2023-02-02T10:15:37;102101.59;;;7.18;100.00
64844;BME280;51310;52.198;5.422;2023-02-02T10:21:03;102109.22;;;7.11;100.00
64844;BME280;51310;52.198;5.422;2023-02-02T10:23:42;102112.91;;;7.13;100.00
64844;BME280;51310;52.198;5.422;2023-02-02T10:26:22;102106.34;;;7.15;100.00
64844;BME280;51310;52.198;5.422;2023-02-02T10:37:37;102112.47;;;7.10;100.00
64844;BME280;51310;52.198;5.422;2023-02-02T10:46:25;102125.50;;;6.99;100.00
64844;BME280;51310;52.198;5.422;2023-02-02T10:51:39;102122.44;;;7.02;100.00
64844;BME280;51310;52.198;5.422;2023-02-02T10:57:23;102118.53;;;7.11;100.00
64844;BME280;51310;52.198;5.422;2023-02-02T11:00:18;102116.38;;;7.14;100.00
64844;BME280;51310;52.198;5.422;2023-02-02T11:02:48;102117.69;;;7.17;100.00
64844;BME280;51310;52.198;5.422;2023-02-02T11:05:22;102121.88;;;7.17;100.00
64844;BME280;51310;52.198;5.422;2023-02-02T11:08:24;102118.34;;;7.09;100.00
64844;BME280;51310;52.198;5.422;2023-02-02T11:10:54;102118.22;;;7.15;100.00
64844;BME280;51310;52.198;5.422;2023-02-02T11:13:30;102120.66;;;7.21;100.00
64844;BME280;51310;52.198;5.422;2023-02-02T11:18:43;102113.97;;;7.28;100.00
64844;BME280;51310;52.198;5.422;2023-02-02T11:21:21;102107.00;;;7.27;100.00
64844;BME280;51310;52.198;5.422;2023-02-02T11:24:20;102111.22;;;7.27;100.00
64844;BME280;51310;52.198;5.422;2023-02-02T11:27:01;102113.78;;;7.27;100.00
64844;BME280;51310;52.198;5.422;2023-02-02T11:32:30;102110.03;;;7.17;100.00
64844;BME280;51310;52.198;5.422;2023-02-02T11:35:14;102111.00;;;7.25;100.00
64844;BME280;51310;52.198;5.422;2023-02-02T11:37:56;102120.44;;;7.19;100.00
64844;BME280;51310;52.198;5.422;2023-02-02T11:42:55;102120.13;;;7.23;100.00
64844;BME280;51310;52.198;5.422;2023-02-02T11:45:36;102118.50;;;7.24;100.00
64844;BME280;51310;52.198;5.422;2023-02-02T11:48:18;102116.53;;;7.28;100.00
64844;BME280;51310;52.198;5.422;2023-02-02T11:50:52;102115.09;;;7.30;100.00
64844;BME280;51310;52.198;5.422;2023-02-02T11:56:09;102115.91;;;7.36;100.00
64844;BME280;51310;52.198;5.422;2023-02-02T11:58:49;102111.28;;;7.34;100.00
64844;BME280;51310;52.198;5.422;2023-02-02T12:03:55;102098.28;;;7.52;100.00
64844;BME280;51310;52.198;5.422;2023-02-02T12:09:01;102120.75;;;7.48;100.00
64844;BME280;51310;52.198;5.422;2023-02-02T12:12:06;102111.75;;;7.44;100.00
64844;BME280;51310;52.198;5.422;2023-02-02T12:21:33;102114.25;;;7.37;100.00
64844;BME280;51310;52.198;5.422;2023-02-02T12:24:33;102109.31;;;7.38;100.00
64844;BME280;51310;52.198;5.422;2023-02-02T12:30:19;102108.38;;;7.38;100.00
64844;BME280;51310;52.198;5.422;2023-02-02T12:33:42;102093.75;;;7.37;100.00
64844;BME280;51310;52.198;5.422;2023-02-02T12:42:37;102093.66;;;7.30;100.00
64844;BME280;51310;52.198;5.422;2023-02-02T12:48:42;102103.13;;;7.24;100.00
64844;BME280;51310;52.198;5.422;2023-02-02T12:51:37;102102.19;;;7.23;100.00
64844;BME280;51310;52.198;5.422;2023-02-02T12:57:36;102089.75;;;7.39;100.00
64844;BME280;51310;52.198;5.422;2023-02-02T13:00:27;102098.63;;;7.28;100.00
64844;BME280;51310;52.198;5.422;2023-02-02T13:08:54;102088.81;;;7.18;100.00
64844;BME280;51310;52.198;5.422;2023-02-02T13:11:50;102089.59;;;7.25;100.00
64844;BME280;51310;52.198;5.422;2023-02-02T13:14:50;102092.09;;;7.17;100.00
64844;BME280;51310;52.198;5.422;2023-02-02T13:17:31;102091.38;;;7.18;100.00
64844;BME280;51310;52.198;5.422;2023-02-02T13:20:10;102090.84;;;7.21;100.00
64844;BME280;51310;52.198;5.422;2023-02-02T13:22:43;102086.03;;;7.17;100.00
64844;BME280;51310;52.198;5.422;2023-02-02T13:25:27;102093.91;;;7.18;100.00
64844;BME280;51310;52.198;5.422;2023-02-02T13:27:55;102101.00;;;7.14;100.00
64844;BME280;51310;52.198;5.422;2023-02-02T13:30:39;102097.16;;;6.97;100.00
64844;BME280;51310;52.198;5.422;2023-02-02T13:33:15;102098.13;;;6.85;100.00
64844;BME280;51310;52.198;5.422;2023-02-02T13:35:55;102106.13;;;6.81;100.00
64844;BME280;51310;52.198;5.422;2023-02-02T13:38:26;102107.94;;;6.82;100.00
64844;BME280;51310;52.198;5.422;2023-02-02T13:40:59;102104.09;;;6.78;100.00
64844;BME280;51310;52.198;5.422;2023-02-02T13:43:50;102112.16;;;6.69;100.00
64844;BME280;51310;52.198;5.422;2023-02-02T13:46:35;102110.50;;;6.69;100.00
64844;BME280;51310;52.198;5.422;2023-02-02T13:49:19;102121.56;;;6.63;100.00
64844;BME280;51310;52.198;5.422;2023-02-02T14:00:33;102114.63;;;6.74;100.00
64844;BME280;51310;52.198;5.422;2023-02-02T14:03:21;102113.78;;;6.81;100.00
64844;BME280;51310;52.198;5.422;2023-02-02T14:06:07;102106.22;;;6.75;100.00
64844;BME280;51310;52.198;5.422;2023-02-02T14:08:34;102105.50;;;6.76;100.00
64844;BME280;51310;52.198;5.422;2023-02-02T14:11:04;102112.75;;;6.73;100.00
64844;BME280;51310;52.198;5.422;2023-02-02T14:13:46;102117.06;;;6.67;100.00
64844;BME280;51310;52.198;5.422;2023-02-02T14:19:03;102116.56;;;6.70;100.00
64844;BME280;51310;52.198;5.422;2023-02-02T14:38:03;102122.81;;;6.72;100.00
64844;BME280;51310;52.198;5.422;2023-02-02T14:43:47;102130.97;;;6.69;100.00
64844;BME280;51310;52.198;5.422;2023-02-02T14:46:24;102129.69;;;6.66;100.00
64844;BME280;51310;52.198;5.422;2023-02-02T14:51:26;102142.66;;;6.67;100.00
64844;BME280;51310;52.198;5.422;2023-02-02T14:53:57;102140.09;;;6.67;100.00
64844;BME280;51310;52.198;5.422;2023-02-02T14:56:47;102143.69;;;6.62;100.00
64844;BME280;51310;52.198;5.422;2023-02-02T14:59:51;102146.47;;;6.64;100.00
64844;BME280;51310;52.198;5.422;2023-02-02T15:02:37;102147.59;;;6.66;100.00
64844;BME280;51310;52.198;5.422;2023-02-02T15:08:06;102140.53;;;6.57;100.00
64844;BME280;51310;52.198;5.422;2023-02-02T15:13:21;102148.59;;;6.61;100.00
64844;BME280;51310;52.198;5.422;2023-02-02T15:16:00;102154.13;;;6.64;100.00
64844;BME280;51310;52.198;5.422;2023-02-02T15:18:40;102160.97;;;6.57;100.00
64844;BME280;51310;52.198;5.422;2023-02-02T15:21:09;102160.16;;;6.64;100.00
64844;BME280;51310;52.198;5.422;2023-02-02T15:23:44;102171.53;;;6.66;100.00
64844;BME280;51310;52.198;5.422;2023-02-02T15:26:27;102160.56;;;6.67;100.00
64844;BME280;51310;52.198;5.422;2023-02-02T15:29:05;102154.66;;;6.61;100.00
64844;BME280;51310;52.198;5.422;2023-02-02T15:31:52;102159.78;;;6.61;100.00
64844;BME280;51310;52.198;5.422;2023-02-02T15:34:26;102154.66;;;6.61;100.00